Time;durP1;ratioP1;P1;durP2;ratioP2;P2;SDS_P1;SDS_P2;PMS_P1;PMS_P2;Temp;Humidity;BMP_temperature;BMP_pressure;BME280_temperature;BME280_humidity;BME280_pressure;Samples;Min_cycle;Max_cycle;Signal;HPM_P1;HPM_P2
2022/03/11 00:01:28;;;;;;;6.00;4.40;;;;;;;9.66;100.00;100249.03;5036266;28;20100;-60
2022/03/11 00:03:54;;;;;;;5.03;3.30;;;;;;;9.64;100.00;100243.09;5034192;28;20021;-56
2022/03/11 00:06:20;;;;;;;7.32;3.40;;;;;;;9.63;100.00;100241.44;5033966;28;20045;-56
2022/03/11 00:08:45;;;;;;;12.68;4.47;;;;;;;9.59;100.00;100241.81;5031685;28;20033;-61
2022/03/11 00:11:10;;;;;;;6.65;3.97;;;;;;;9.59;100.00;100239.19;5036578;28;20062;-59
2022/03/11 00:13:36;;;;;;;8.50;4.13;;;;;;;9.65;100.00;100234.94;5038088;28;20037;-62
2022/03/11 00:16:02;;;;;;;7.30;4.30;;;;;;;9.70;100.00;100232.53;5033007;28;20035;-58
2022/03/11 00:18:27;;;;;;;7.15;4.13;;;;;;;9.71;100.00;100231.56;5035718;28;20045;-61
2022/03/11 00:20:52;;;;;;;5.25;3.10;;;;;;;9.71;100.00;100223.63;5038682;28;20812;-59
2022/03/11 00:23:18;;;;;;;6.63;3.85;;;;;;;9.68;100.00;100226.66;5042209;28;20462;-61
2022/03/11 00:25:43;;;;;;;7.20;4.15;;;;;;;9.66;100.00;100227.84;5031066;28;20072;-62
2022/03/11 00:28:09;;;;;;;6.68;3.88;;;;;;;9.65;100.00;100216.41;5037604;28;20033;-60
2022/03/11 00:30:34;;;;;;;4.85;3.80;;;;;;;9.63;100.00;100218.47;5034539;28;20123;-61
2022/03/11 00:33:00;;;;;;;4.97;3.42;;;;;;;9.61;100.00;100210.69;5039220;28;20021;-61
2022/03/11 00:35:26;;;;;;;4.90;3.38;;;;;;;9.61;100.00;100209.88;5038843;28;20055;-60
2022/03/11 00:37:51;;;;;;;9.05;3.20;;;;;;;9.58;100.00;100208.44;5034021;28;20037;-61
2022/03/11 00:40:16;;;;;;;7.07;4.50;;;;;;;9.57;100.00;100203.31;5033290;28;20033;-57
2022/03/11 00:42:43;;;;;;;6.00;3.63;;;;;;;9.57;100.00;100195.38;5032923;28;20297;-60
2022/03/11 00:45:09;;;;;;;11.50;4.20;;;;;;;9.60;100.00;100187.91;5040780;28;20470;-60
2022/03/11 00:47:34;;;;;;;5.00;4.22;;;;;;;9.61;100.00;100188.72;5034812;28;20037;-60
2022/03/11 00:50:00;;;;;;;6.22;3.08;;;;;;;9.61;100.00;100183.41;5034428;28;20068;-61
2022/03/11 00:52:26;;;;;;;7.07;3.50;;;;;;;9.60;100.00;100179.13;5031940;28;20375;-60
2022/03/11 00:54:51;;;;;;;5.35;2.85;;;;;;;9.59;100.00;100174.84;5039251;28;20040;-62
2022/03/11 00:57:17;;;;;;;10.48;3.85;;;;;;;9.58;100.00;100162.63;5034941;28;20299;-62
2022/03/11 00:59:43;;;;;;;7.88;3.33;;;;;;;9.61;100.00;100160.41;5035086;28;20075;-60
2022/03/11 01:02:08;;;;;;;5.38;3.38;;;;;;;9.61;100.00;100154.31;5029041;28;20495;-61
2022/03/11 01:04:33;;;;;;;6.38;3.53;;;;;;;9.56;100.00;100154.88;5034299;28;20026;-61
2022/03/11 01:06:59;;;;;;;4.82;2.70;;;;;;;9.51;100.00;100153.81;5034533;28;20082;-60
2022/03/11 01:09:24;;;;;;;6.55;3.38;;;;;;;9.51;100.00;100151.16;5031649;28;20071;-58
2022/03/11 01:11:49;;;;;;;4.50;3.25;;;;;;;9.46;100.00;100149.09;5033514;28;20043;-60
2022/03/11 01:14:15;;;;;;;7.57;2.88;;;;;;;9.42;100.00;100147.00;5034554;28;20445;-61
2022/03/11 01:16:40;;;;;;;11.90;4.40;;;;;;;9.43;100.00;100149.47;5028456;28;20089;-61
2022/03/11 01:19:06;;;;;;;5.35;2.78;;;;;;;9.43;100.00;100149.47;5032596;28;20127;-58
2022/03/11 01:21:31;;;;;;;5.82;3.45;;;;;;;9.41;100.00;100145.38;5030515;28;20485;-58
2022/03/11 01:23:56;;;;;;;4.15;3.22;;;;;;;9.38;100.00;100147.41;5031692;28;20037;-61
2022/03/11 01:26:22;;;;;;;5.47;3.08;;;;;;;9.33;100.00;100144.50;5033273;28;20030;-60
2022/03/11 01:28:49;;;;;;;6.75;3.78;;;;;;;9.26;100.00;100129.59;5035992;28;20037;-60
2022/03/11 01:31:16;;;;;;;5.30;3.10;;;;;;;9.22;100.00;100123.88;5031515;28;20026;-56
2022/03/11 01:33:42;;;;;;;10.07;3.20;;;;;;;9.18;100.00;100119.94;5036299;28;20474;-60
2022/03/11 01:36:09;;;;;;;9.88;4.45;;;;;;;9.06;100.00;100111.72;5035064;28;20036;-59
2022/03/11 01:38:35;;;;;;;5.78;3.95;;;;;;;8.97;100.00;100112.03;5033100;28;20057;-60
2022/03/11 01:41:01;;;;;;;5.78;3.78;;;;;;;8.91;100.00;100114.44;5038513;28;20040;-58
2022/03/11 01:43:28;;;;;;;5.45;3.10;;;;;;;8.83;100.00;100116.38;5034349;28;20040;-58
2022/03/11 01:45:54;;;;;;;8.50;3.13;;;;;;;8.80;100.00;100114.91;5034234;28;20025;-58
2022/03/11 01:48:19;;;;;;;3.63;2.55;;;;;;;8.75;100.00;100101.44;5032876;28;20029;-56
2022/03/11 01:50:44;;;;;;;5.60;2.85;;;;;;;8.69;100.00;100097.72;5039998;28;20115;-58
2022/03/11 01:53:11;;;;;;;4.30;2.47;;;;;;;8.64;100.00;100086.09;5037127;28;20108;-56
2022/03/11 01:55:38;;;;;;;8.10;3.25;;;;;;;8.63;100.00;100085.28;5036428;28;20122;-58
2022/03/11 01:58:04;;;;;;;13.40;5.30;;;;;;;8.63;100.00;100087.91;5035200;28;20147;-57
2022/03/11 02:00:31;;;;;;;6.18;2.83;;;;;;;8.66;100.00;100074.31;5034663;28;20041;-56
2022/03/11 02:02:57;;;;;;;5.55;3.20;;;;;;;8.77;100.00;100077.47;5036484;28;20144;-59
2022/03/11 02:05:24;;;;;;;3.85;2.38;;;;;;;8.89;100.00;100079.44;5035979;28;20116;-55
2022/03/11 02:07:49;;;;;;;6.38;3.30;;;;;;;8.90;100.00;100073.13;5036472;28;20410;-58
2022/03/11 02:10:16;;;;;;;6.45;4.18;;;;;;;9.00;100.00;100066.69;5035673;28;20037;-58
2022/03/11 02:12:43;;;;;;;8.60;3.38;;;;;;;9.02;100.00;100068.16;5037609;28;20402;-61
2022/03/11 02:15:09;;;;;;;4.32;3.13;;;;;;;9.04;100.00;100063.50;5042592;28;20032;-58
2022/03/11 02:17:35;;;;;;;5.82;2.88;;;;;;;9.03;100.00;100068.97;5037439;28;20041;-60
2022/03/11 02:20:00;;;;;;;10.55;4.13;;;;;;;9.03;100.00;100061.84;5032502;28;20383;-60
2022/03/11 02:22:27;;;;;;;8.55;2.85;;;;;;;9.05;100.00;100061.66;5039764;28;20471;-60
2022/03/11 02:24:54;;;;;;;5.15;2.85;;;;;;;9.11;100.00;100061.72;5034709;28;20039;-60
2022/03/11 02:27:20;;;;;;;4.70;3.00;;;;;;;9.16;100.00;100054.03;5041045;28;20119;-61
2022/03/11 02:29:45;;;;;;;8.85;4.32;;;;;;;9.13;100.00;100053.59;5036812;28;20045;-59
2022/03/11 02:32:11;;;;;;;7.45;3.55;;;;;;;9.06;100.00;100047.41;5044792;28;20098;-61
2022/03/11 02:34:40;;;;;;;6.03;4.38;;;;;;;8.94;100.00;100040.00;5036549;28;20052;-59
2022/03/11 02:37:06;;;;;;;3.58;2.75;;;;;;;8.86;100.00;100037.50;5041235;28;20123;-59
2022/03/11 02:39:31;;;;;;;7.55;4.13;;;;;;;8.78;100.00;100024.44;5040221;28;20029;-60
2022/03/11 02:41:58;;;;;;;6.15;4.03;;;;;;;8.69;100.00;100017.63;5037824;28;20052;-57
2022/03/11 02:44:24;;;;;;;6.43;4.38;;;;;;;8.63;100.00;100015.75;5035613;28;20124;-58
2022/03/11 02:46:49;;;;;;;10.88;3.58;;;;;;;8.57;100.00;100012.06;5044399;28;20542;-56
2022/03/11 02:49:15;;;;;;;4.45;2.53;;;;;;;8.46;100.00;100010.69;5038274;28;20040;-60
2022/03/11 02:51:40;;;;;;;9.82;5.55;;;;;;;8.40;100.00;99998.25;5045907;28;20040;-58
2022/03/11 02:54:06;;;;;;;7.03;3.60;;;;;;;8.43;100.00;99987.31;5036641;28;20037;-58
2022/03/11 02:56:31;;;;;;;6.43;4.45;;;;;;;8.42;100.00;99990.97;5047316;28;20130;-53
2022/03/11 02:58:56;;;;;;;6.45;4.55;;;;;;;8.40;100.00;99989.53;5036192;28;20401;-56
2022/03/11 03:01:22;;;;;;;8.40;3.35;;;;;;;8.32;100.00;99982.50;5038877;28;20105;-59
2022/03/11 03:03:47;;;;;;;10.10;3.92;;;;;;;8.16;100.00;99973.00;5050806;28;20028;-58
2022/03/11 03:06:13;;;;;;;5.57;3.20;;;;;;;8.12;100.00;99977.00;5035586;28;20536;-57
2022/03/11 03:08:39;;;;;;;9.80;3.70;;;;;;;8.16;100.00;99977.44;5038816;28;20462;-59
2022/03/11 03:11:04;;;;;;;5.93;3.80;;;;;;;8.08;100.00;99971.31;5034728;28;20113;-58
2022/03/11 03:13:30;;;;;;;5.20;2.63;;;;;;;8.04;100.00;99972.66;5048974;28;20055;-55
2022/03/11 03:15:55;;;;;;;7.80;3.00;;;;;;;7.98;100.00;99964.69;5037820;28;20033;-60
2022/03/11 03:18:21;;;;;;;7.35;3.28;;;;;;;7.92;100.00;99958.31;5030949;28;20044;-57
2022/03/11 03:20:46;;;;;;;5.80;2.97;;;;;;;7.87;100.00;99955.41;5033226;28;20032;-53
2022/03/11 03:23:12;;;;;;;6.80;3.95;;;;;;;7.81;100.00;99948.25;5042928;28;20078;-59
2022/03/11 03:25:38;;;;;;;4.22;2.85;;;;;;;7.81;100.00;99942.97;5033471;28;20022;-57
2022/03/11 03:28:04;;;;;;;4.78;3.28;;;;;;;7.77;100.00;99944.31;5038516;28;20030;-57
2022/03/11 03:30:29;;;;;;;5.95;2.80;;;;;;;7.67;100.00;99938.53;5029849;28;20029;-54
2022/03/11 03:32:54;;;;;;;5.93;3.70;;;;;;;7.72;100.00;99939.63;5046459;28;20044;-58
2022/03/11 03:35:20;;;;;;;5.55;3.70;;;;;;;7.66;100.00;99932.44;5035222;28;20494;-57
2022/03/11 03:37:45;;;;;;;5.65;4.00;;;;;;;7.59;100.00;99935.00;5037375;28;20108;-60
2022/03/11 03:40:11;;;;;;;5.95;3.15;;;;;;;7.54;100.00;99929.47;5036680;28;20095;-59
2022/03/11 03:42:37;;;;;;;6.07;3.40;;;;;;;7.50;100.00;99924.75;5035557;28;20101;-58
2022/03/11 03:45:04;;;;;;;6.50;4.65;;;;;;;7.47;100.00;99925.94;5035902;28;20037;-57
2022/03/11 03:47:29;;;;;;;4.68;3.33;;;;;;;7.51;100.00;99921.94;5036519;28;20036;-57
2022/03/11 03:49:55;;;;;;;6.60;3.65;;;;;;;7.46;100.00;99908.47;5033906;28;20148;-58
2022/03/11 03:52:20;;;;;;;8.98;3.63;;;;;;;7.49;100.00;99912.56;5044847;28;20040;-60
2022/03/11 03:54:45;;;;;;;7.85;3.92;;;;;;;7.41;100.00;99916.13;5033438;28;20761;-55
2022/03/11 03:57:11;;;;;;;4.40;2.38;;;;;;;7.33;100.00;99909.13;5034778;28;20205;-55
2022/03/11 03:59:37;;;;;;;5.85;3.30;;;;;;;7.33;100.00;99913.56;5029713;28;20078;-56
2022/03/11 04:02:03;;;;;;;7.53;4.90;;;;;;;7.36;100.00;99903.47;5037370;28;20048;-56
2022/03/11 04:04:28;;;;;;;4.95;3.40;;;;;;;7.36;100.00;99914.03;5031314;28;20029;-56
2022/03/11 04:06:54;;;;;;;6.45;3.60;;;;;;;7.32;100.00;99911.94;5041343;28;20037;-57
2022/03/11 04:09:19;;;;;;;8.93;3.92;;;;;;;7.28;100.00;99908.03;5037555;28;20545;-52
2022/03/11 04:11:44;;;;;;;5.28;2.92;;;;;;;7.27;100.00;99909.84;5045463;28;20032;-56
2022/03/11 04:14:10;;;;;;;6.68;3.13;;;;;;;7.20;100.00;99908.94;5033124;28;20044;-58
2022/03/11 04:16:36;;;;;;;4.03;2.88;;;;;;;7.10;100.00;99903.97;5051282;28;20646;-56
2022/03/11 04:19:01;;;;;;;8.65;4.45;;;;;;;7.16;100.00;99910.31;5030332;28;20105;-55
2022/03/11 04:21:27;;;;;;;8.75;3.45;;;;;;;7.25;100.00;99908.41;5039332;28;20991;-53
2022/03/11 04:23:53;;;;;;;4.78;3.90;;;;;;;7.31;100.00;99921.69;5029774;28;20113;-52
2022/03/11 04:26:18;;;;;;;8.73;4.15;;;;;;;7.43;100.00;99909.66;5051663;28;20046;-55
2022/03/11 04:28:43;;;;;;;6.78;3.35;;;;;;;7.62;100.00;99918.81;5031569;28;20057;-56
2022/03/11 04:31:10;;;;;;;6.75;3.25;;;;;;;7.75;100.00;99904.13;5033984;28;20036;-56
2022/03/11 04:33:37;;;;;;;7.68;4.90;;;;;;;7.86;100.00;99898.34;5025761;28;20120;-57
2022/03/11 04:36:03;;;;;;;5.05;3.65;;;;;;;7.87;100.00;99892.06;5048527;28;20502;-54
2022/03/11 04:38:30;;;;;;;6.05;4.03;;;;;;;7.82;100.00;99894.44;5031816;28;20038;-56
2022/03/11 04:40:56;;;;;;;8.88;4.25;;;;;;;7.73;100.00;99885.03;5034560;28;20025;-56
2022/03/11 04:43:21;;;;;;;6.50;2.72;;;;;;;7.68;100.00;99887.41;5046674;28;20106;-58
2022/03/11 04:45:47;;;;;;;6.00;3.35;;;;;;;7.74;100.00;99894.56;5055845;28;20478;-57
2022/03/11 04:48:12;;;;;;;9.32;3.50;;;;;;;7.73;100.00;99892.94;5028458;28;20033;-56
2022/03/11 04:50:38;;;;;;;7.30;3.53;;;;;;;7.76;100.00;99890.72;5026675;28;20363;-60
2022/03/11 04:53:04;;;;;;;12.00;3.88;;;;;;;7.82;100.00;99883.88;5034220;28;20036;-56
2022/03/11 04:55:30;;;;;;;8.52;4.35;;;;;;;7.75;100.00;99883.84;5052925;28;20037;-56
2022/03/11 04:57:55;;;;;;;6.43;4.55;;;;;;;7.65;100.00;99876.22;5032760;28;20033;-59
2022/03/11 05:00:21;;;;;;;9.75;4.85;;;;;;;7.52;100.00;99876.06;5032747;28;20143;-56
2022/03/11 05:02:46;;;;;;;8.38;3.45;;;;;;;7.49;100.00;99876.44;5030196;28;20026;-56
2022/03/11 05:05:12;;;;;;;8.07;3.95;;;;;;;7.42;100.00;99875.56;5054849;28;20040;-59
2022/03/11 05:07:38;;;;;;;4.10;3.55;;;;;;;7.29;100.00;99876.22;5041668;28;20029;-58
2022/03/11 05:10:09;;;;;;;6.97;3.90;;;;;;;7.18;100.00;99871.41;5036187;28;20167;-57
2022/03/11 05:12:35;;;;;;;5.07;3.08;;;;;;;7.16;100.00;99862.88;5047504;28;20043;-57
2022/03/11 05:15:01;;;;;;;6.03;2.83;;;;;;;7.21;100.00;99863.94;5054821;28;20485;-56
2022/03/11 05:17:27;;;;;;;8.07;3.83;;;;;;;7.16;100.00;99858.41;5043138;28;20417;-59
2022/03/11 05:19:52;;;;;;;4.35;2.92;;;;;;;7.13;100.00;99861.41;5044504;28;20037;-58
2022/03/11 05:22:18;;;;;;;7.60;3.30;;;;;;;7.08;100.00;99849.78;5058254;28;20040;-58
2022/03/11 05:24:44;;;;;;;11.18;4.22;;;;;;;7.05;100.00;99848.34;5049694;28;20034;-59
2022/03/11 05:27:10;;;;;;;4.50;2.90;;;;;;;7.01;100.00;99849.69;5034390;28;20033;-58
2022/03/11 05:29:35;;;;;;;10.65;4.15;;;;;;;6.95;100.00;99850.44;5036973;28;20028;-57
2022/03/11 05:32:02;;;;;;;7.38;4.70;;;;;;;6.95;100.00;99853.06;5036623;28;20124;-59
2022/03/11 05:34:27;;;;;;;7.28;3.13;;;;;;;6.96;100.00;99839.69;5039595;28;20045;-57
2022/03/11 05:36:53;;;;;;;5.75;3.58;;;;;;;6.91;100.00;99831.50;5043110;28;20025;-60
2022/03/11 05:39:19;;;;;;;8.00;3.55;;;;;;;6.81;100.00;99835.44;5042421;28;20040;-56
2022/03/11 05:41:46;;;;;;;9.43;3.50;;;;;;;6.72;100.00;99826.81;5039927;28;20025;-56
2022/03/11 05:44:13;;;;;;;11.52;3.97;;;;;;;6.75;100.00;99835.16;5040101;28;20037;-57
2022/03/11 05:46:38;;;;;;;6.57;3.25;;;;;;;6.66;100.00;99831.00;5037701;28;20699;-58
2022/03/11 05:49:04;;;;;;;5.13;3.42;;;;;;;6.58;100.00;99820.50;5042659;28;20127;-58
2022/03/11 05:51:29;;;;;;;8.80;3.42;;;;;;;6.59;100.00;99816.91;5039153;28;20045;-57
2022/03/11 05:53:54;;;;;;;6.00;4.03;;;;;;;6.61;100.00;99809.63;5038004;28;20030;-57
2022/03/11 05:56:23;;;;;;;11.93;4.28;;;;;;;6.63;100.00;99817.34;5027606;28;20088;-57
2022/03/11 05:58:50;;;;;;;6.68;3.83;;;;;;;6.69;100.00;99814.81;5031013;28;20124;-59
2022/03/11 06:01:16;;;;;;;7.25;3.42;;;;;;;6.61;100.00;99809.63;5032292;28;20183;-57
2022/03/11 06:03:42;;;;;;;4.82;3.38;;;;;;;6.54;100.00;99804.25;5033985;28;20463;-59
2022/03/11 06:06:07;;;;;;;7.18;4.18;;;;;;;6.59;100.00;99805.56;5031386;28;20032;-58
2022/03/11 06:08:32;;;;;;;6.50;5.07;;;;;;;6.68;100.00;99809.72;5032679;28;20111;-62
2022/03/11 06:10:57;;;;;;;9.73;3.75;;;;;;;6.71;100.00;99804.91;5037355;28;20118;-63
2022/03/11 06:13:23;;;;;;;6.30;3.90;;;;;;;6.72;100.00;99787.28;5029032;28;20140;-62
2022/03/11 06:15:49;;;;;;;8.73;4.72;;;;;;;6.82;100.00;99802.81;5034128;28;20113;-63
2022/03/11 06:18:17;;;;;;;9.32;4.07;;;;;;;6.79;100.00;99790.84;5032395;28;20037;-65
2022/03/11 06:20:43;;;;;;;6.63;3.95;;;;;;;6.74;100.00;99794.00;5032368;28;20033;-63
2022/03/11 06:23:08;;;;;;;8.43;4.45;;;;;;;6.69;100.00;99791.09;5032706;28;20044;-63
2022/03/11 06:25:34;;;;;;;10.40;4.82;;;;;;;6.67;100.00;99781.75;5038501;28;20038;-64
2022/03/11 06:27:59;;;;;;;7.22;3.67;;;;;;;6.67;100.00;99792.28;5039925;28;20142;-65
2022/03/11 06:30:25;;;;;;;9.18;4.70;;;;;;;6.62;100.00;99784.94;5040726;28;20033;-66
2022/03/11 06:32:51;;;;;;;8.63;4.63;;;;;;;6.68;100.00;99784.19;5043518;28;20458;-65
2022/03/11 06:35:17;;;;;;;8.60;5.63;;;;;;;6.67;100.00;99782.56;5034604;28;20033;-64
2022/03/11 06:37:44;;;;;;;9.40;3.80;;;;;;;6.68;100.00;99778.91;5044156;28;20052;-66
2022/03/11 06:40:10;;;;;;;9.10;4.22;;;;;;;6.67;100.00;99779.13;5043500;28;20094;-63
2022/03/11 06:42:41;;;;;;;9.10;4.57;;;;;;;6.72;100.00;99785.47;5032231;28;20105;-62
2022/03/11 06:45:08;;;;;;;10.30;5.28;;;;;;;6.72;100.00;99788.09;5029505;28;20041;-58
2022/03/11 06:47:34;;;;;;;6.68;4.97;;;;;;;6.78;100.00;99779.44;5047485;28;20039;-60
2022/03/11 06:50:00;;;;;;;10.07;5.03;;;;;;;6.82;100.00;99771.19;5047897;28;20440;-62
2022/03/11 06:52:25;;;;;;;7.78;4.28;;;;;;;6.83;100.00;99770.19;5037803;28;20029;-63
2022/03/11 06:54:51;;;;;;;8.75;4.30;;;;;;;6.84;100.00;99772.66;5043442;28;20581;-62
2022/03/11 06:57:17;;;;;;;5.68;4.03;;;;;;;6.88;100.00;99773.91;5040074;28;20033;-59
2022/03/11 06:59:46;;;;;;;7.47;4.18;;;;;;;7.01;100.00;99767.16;5030661;28;20127;-57
2022/03/11 07:02:12;;;;;;;6.65;4.53;;;;;;;7.01;100.00;99757.44;5038144;28;20033;-59
2022/03/11 07:04:37;;;;;;;6.47;3.33;;;;;;;7.04;100.00;99756.25;5039043;28;20429;-58
2022/03/11 07:07:04;;;;;;;7.68;4.43;;;;;;;7.09;100.00;99759.13;5043637;28;20028;-58
2022/03/11 07:09:29;;;;;;;6.50;4.68;;;;;;;7.17;100.00;99751.94;5050774;28;20414;-58
2022/03/11 07:11:57;;;;;;;4.88;3.97;;;;;;;7.26;100.00;99750.00;5031407;28;20103;-63
2022/03/11 07:14:25;;;;;;;6.53;3.85;;;;;;;7.28;100.00;99755.06;5029187;28;20033;-62
2022/03/11 07:16:52;;;;;;;6.82;4.45;;;;;;;7.34;100.00;99752.53;5039713;28;20098;-56
2022/03/11 07:19:20;;;;;;;11.38;4.50;;;;;;;7.40;100.00;99748.31;5039924;28;20378;-59
2022/03/11 07:21:46;;;;;;;8.63;3.92;;;;;;;7.39;100.00;99744.06;5042524;28;20378;-52
2022/03/11 07:24:11;;;;;;;11.10;4.47;;;;;;;7.43;100.00;99737.38;5033713;28;20020;-53
2022/03/11 07:26:36;;;;;;;9.32;5.18;;;;;;;7.45;100.00;99735.38;5034179;28;20052;-55
2022/03/11 07:29:02;;;;;;;6.10;3.97;;;;;;;7.57;100.00;99728.59;5032130;28;20034;-57
2022/03/11 07:31:28;;;;;;;7.63;4.63;;;;;;;7.62;100.00;99722.75;5032838;28;20102;-58
2022/03/11 07:33:54;;;;;;;7.28;3.50;;;;;;;7.62;100.00;99723.56;5032994;28;20033;-56
2022/03/11 07:36:20;;;;;;;5.25;4.18;;;;;;;7.64;100.00;99729.47;5030777;28;20559;-56
2022/03/11 07:38:45;;;;;;;8.18;3.70;;;;;;;7.71;100.00;99721.59;5036412;28;20124;-52
2022/03/11 07:41:14;;;;;;;7.88;3.53;;;;;;;7.81;100.00;99718.63;5034793;28;20041;-59
2022/03/11 07:43:42;;;;;;;8.27;3.63;;;;;;;7.88;100.00;99716.88;5035160;28;20033;-60
2022/03/11 07:46:08;;;;;;;7.40;3.22;;;;;;;7.92;100.00;99712.00;5038889;28;20071;-53
2022/03/11 07:48:33;;;;;;;8.77;4.07;;;;;;;7.94;100.00;99710.00;5036155;28;20026;-61
2022/03/11 07:50:59;;;;;;;7.15;3.85;;;;;;;7.93;100.00;99709.19;5038667;28;20136;-49
2022/03/11 07:53:24;;;;;;;4.30;3.28;;;;;;;7.95;100.00;99704.53;5027084;28;20025;-53
2022/03/11 07:55:50;;;;;;;9.02;3.42;;;;;;;7.93;100.00;99701.28;5027651;28;20742;-61
2022/03/11 07:58:15;;;;;;;6.05;4.32;;;;;;;7.96;100.00;99700.06;5031821;28;20037;-57
2022/03/11 08:00:41;;;;;;;4.90;4.13;;;;;;;7.98;100.00;99696.22;5036809;28;20032;-58
2022/03/11 08:03:07;;;;;;;9.35;4.07;;;;;;;8.02;100.00;99689.53;5029307;28;20056;-59
2022/03/11 08:05:32;;;;;;;7.00;4.03;;;;;;;8.05;100.00;99696.25;5025221;28;20033;-61
2022/03/11 08:07:58;;;;;;;8.27;4.70;;;;;;;8.09;100.00;99681.66;5024337;28;20439;-57
2022/03/11 08:10:24;;;;;;;7.30;4.22;;;;;;;8.14;100.00;99704.84;5028889;28;20060;-58
2022/03/11 08:12:50;;;;;;;9.02;4.97;;;;;;;8.22;100.00;99696.78;5029648;28;20717;-63
2022/03/11 08:15:17;;;;;;;5.65;3.65;;;;;;;8.29;100.00;99687.06;5034287;28;20561;-59
2022/03/11 08:17:42;;;;;;;6.95;3.90;;;;;;;8.34;100.00;99684.66;5029949;28;20068;-62
2022/03/11 08:20:09;;;;;;;6.60;3.90;;;;;;;8.39;100.00;99682.28;5027954;28;20124;-58
2022/03/11 08:22:35;;;;;;;7.43;3.92;;;;;;;8.42;100.00;99673.16;5030487;28;20025;-61
2022/03/11 08:25:00;;;;;;;8.25;3.67;;;;;;;8.49;100.00;99668.69;5031892;28;20029;-59
2022/03/11 08:27:26;;;;;;;6.32;4.22;;;;;;;8.54;100.00;99666.25;5030779;28;20033;-63
2022/03/11 08:29:51;;;;;;;6.75;3.97;;;;;;;8.60;100.00;99662.84;5030352;28;20032;-60
2022/03/11 08:32:17;;;;;;;5.30;3.17;;;;;;;8.64;100.00;99664.06;5028401;28;21200;-60
2022/03/11 08:34:42;;;;;;;7.88;3.70;;;;;;;8.70;100.00;99654.56;5035688;28;20079;-61
2022/03/11 08:37:07;;;;;;;9.40;4.97;;;;;;;8.80;100.00;99648.88;5042916;28;20048;-62
2022/03/11 08:39:33;;;;;;;6.88;3.45;;;;;;;8.89;100.00;99648.50;5028982;28;20033;-65
2022/03/11 08:41:58;;;;;;;6.90;3.75;;;;;;;8.97;100.00;99641.38;5045882;28;20039;-63
2022/03/11 08:44:23;;;;;;;8.30;4.75;;;;;;;9.05;100.00;99635.91;5049599;28;20116;-62
2022/03/11 08:46:49;;;;;;;4.85;3.55;;;;;;;9.11;100.00;99640.38;5040264;28;21394;-61
2022/03/11 08:49:14;;;;;;;10.10;3.70;;;;;;;9.17;100.00;99642.22;5031215;28;20025;-60
2022/03/11 08:51:41;;;;;;;6.97;4.50;;;;;;;9.25;100.00;99639.38;5039942;28;20033;-59
2022/03/11 08:54:07;;;;;;;4.75;2.85;;;;;;;9.29;100.00;99624.75;5036191;28;20034;-61
2022/03/11 08:56:32;;;;;;;8.48;3.92;;;;;;;9.33;100.00;99618.00;5038093;28;20052;-58
2022/03/11 08:58:58;;;;;;;6.32;3.00;;;;;;;9.37;100.00;99623.69;5038218;28;20539;-62
2022/03/11 09:01:23;;;;;;;9.32;3.70;;;;;;;9.41;100.00;99624.13;5037770;28;20037;-63
2022/03/11 09:03:49;;;;;;;5.00;4.38;;;;;;;9.39;100.00;99622.47;5040679;28;20057;-60
2022/03/11 09:06:14;;;;;;;6.57;2.58;;;;;;;9.37;100.00;99615.75;5024956;28;20116;-56
2022/03/11 09:08:40;;;;;;;7.30;3.50;;;;;;;9.37;100.00;99605.19;5031308;28;20108;-61
2022/03/11 09:11:05;;;;;;;7.45;3.35;;;;;;;9.37;100.00;99610.47;5057331;28;20033;-57
2022/03/11 09:13:31;;;;;;;4.35;2.90;;;;;;;9.38;100.00;99607.63;5038400;28;20029;-59
2022/03/11 09:15:56;;;;;;;5.07;3.25;;;;;;;9.39;100.00;99609.25;5035609;28;20029;-52
2022/03/11 09:18:22;;;;;;;4.05;2.45;;;;;;;9.44;100.00;99607.84;5032996;28;20601;-60
2022/03/11 09:20:47;;;;;;;5.90;3.30;;;;;;;9.46;100.00;99609.25;5036228;28;20036;-63
2022/03/11 09:23:13;;;;;;;5.15;3.63;;;;;;;9.48;100.00;99603.78;5045948;28;20028;-60
2022/03/11 09:25:38;;;;;;;4.63;3.30;;;;;;;9.49;100.00;99592.97;5036673;28;20424;-56
2022/03/11 09:28:07;;;;;;;4.55;3.38;;;;;;;9.49;100.00;99590.31;5035447;28;20127;-57
2022/03/11 09:30:32;;;;;;;6.60;3.13;;;;;;;9.51;100.00;99584.84;5036213;28;20078;-60
2022/03/11 09:32:58;;;;;;;9.35;3.42;;;;;;;9.54;100.00;99589.72;5032880;28;20045;-63
2022/03/11 09:35:24;;;;;;;7.70;3.85;;;;;;;9.58;100.00;99593.59;5041974;28;20075;-59
2022/03/11 09:37:49;;;;;;;5.68;3.20;;;;;;;9.59;100.00;99581.97;5048248;28;20024;-62
2022/03/11 09:40:16;;;;;;;6.75;3.90;;;;;;;9.59;100.00;99581.97;5031429;28;20038;-59
2022/03/11 09:42:42;;;;;;;7.40;2.45;;;;;;;9.65;100.00;99583.78;5028344;28;20356;-59
2022/03/11 09:45:08;;;;;;;5.47;2.75;;;;;;;9.71;100.00;99579.50;5034155;28;20039;-59
2022/03/11 09:47:34;;;;;;;8.00;3.05;;;;;;;9.75;100.00;99565.63;5041681;28;20033;-58
2022/03/11 09:49:59;;;;;;;4.82;3.33;;;;;;;9.79;100.00;99566.06;5036041;28;20483;-60
2022/03/11 09:52:25;;;;;;;4.78;3.05;;;;;;;9.81;100.00;99559.53;5044381;28;20033;-60
2022/03/11 09:54:51;;;;;;;7.40;3.45;;;;;;;9.83;100.00;99562.78;5040727;28;20139;-58
2022/03/11 09:57:18;;;;;;;4.85;2.75;;;;;;;9.87;100.00;99557.88;5037911;28;20109;-59
2022/03/11 09:59:44;;;;;;;6.75;3.20;;;;;;;9.92;100.00;99551.97;5045579;28;20730;-55
2022/03/11 10:02:14;;;;;;;3.33;2.25;;;;;;;10.01;100.00;99553.34;5044496;28;20116;-57
2022/03/11 10:04:51;;;;;;;7.70;3.50;;;;;;;10.09;100.00;99539.03;5034898;28;20416;-63
2022/03/11 10:07:24;;;;;;;6.95;3.22;;;;;;;10.18;100.00;99556.34;5041371;28;20123;-65
2022/03/11 10:09:49;;;;;;;5.10;2.97;;;;;;;10.25;100.00;99534.09;5054292;28;20116;-58
2022/03/11 10:12:25;;;;;;;6.22;3.38;;;;;;;10.31;100.00;99526.34;5037169;28;20783;-57
2022/03/11 10:14:59;;;;;;;5.85;2.72;;;;;;;10.35;100.00;99515.13;5033740;28;20463;-55
2022/03/11 10:17:25;;;;;;;3.08;2.38;;;;;;;10.40;100.00;99502.03;5052846;28;20132;-61
2022/03/11 10:20:02;;;;;;;4.63;2.60;;;;;;;10.52;100.00;99496.84;5043279;28;20037;-59
2022/03/11 10:22:28;;;;;;;4.70;3.03;;;;;;;10.59;100.00;99488.88;5033064;28;20064;-57
2022/03/11 10:24:55;;;;;;;2.95;2.10;;;;;;;10.66;100.00;99481.66;5034558;28;20483;-59
2022/03/11 10:27:23;;;;;;;7.47;3.25;;;;;;;10.74;100.00;99485.88;5038939;28;20512;-61
2022/03/11 10:29:49;;;;;;;4.22;2.25;;;;;;;10.87;100.00;99491.09;5054347;28;20103;-61
2022/03/11 10:32:22;;;;;;;8.65;3.15;;;;;;;10.96;100.00;99481.00;5029186;28;20398;-59
2022/03/11 10:34:48;;;;;;;8.75;3.10;;;;;;;11.03;100.00;99469.31;5034491;28;20450;-61
2022/03/11 10:37:14;;;;;;;7.35;2.38;;;;;;;11.14;100.00;99479.19;5055425;28;20068;-62
2022/03/11 10:39:42;;;;;;;4.15;3.38;;;;;;;11.25;100.00;99479.50;5052779;28;20557;-60
2022/03/11 10:42:23;;;;;;;8.68;2.83;;;;;;;11.34;100.00;99486.16;5035747;28;20036;-58
2022/03/11 10:45:06;;;;;;;6.93;3.33;;;;;;;11.40;100.00;99471.19;5044334;28;20513;-55
2022/03/11 10:47:40;;;;;;;9.23;3.08;;;;;;;11.37;100.00;99467.13;5054856;28;20115;-56
2022/03/11 10:50:16;;;;;;;7.47;3.10;;;;;;;11.41;100.00;99465.69;5044261;28;20033;-55
2022/03/11 10:52:43;;;;;;;8.02;3.40;;;;;;;11.49;100.00;99457.41;5029970;28;20064;-63
2022/03/11 10:55:17;;;;;;;3.30;2.10;;;;;;;11.57;100.00;99445.69;5046071;28;20039;-58
2022/03/11 10:57:43;;;;;;;4.63;2.88;;;;;;;11.57;100.00;99445.69;5039838;28;20364;-56
2022/03/11 11:00:25;;;;;;;12.02;2.58;;;;;;;11.59;100.00;99464.88;5051562;28;20092;-64
2022/03/11 11:02:55;;;;;;;4.57;3.15;;;;;;;11.43;100.00;99473.41;5051334;28;20033;-62
2022/03/11 11:05:20;;;;;;;5.80;3.05;;;;;;;11.29;100.00;99470.09;5041265;28;20041;-62
2022/03/11 11:07:47;;;;;;;6.57;3.50;;;;;;;11.19;100.00;99464.47;5030452;28;20140;-59
2022/03/11 11:10:14;;;;;;;7.32;3.30;;;;;;;11.23;100.00;99463.81;5029243;28;20065;-57
2022/03/11 11:12:40;;;;;;;5.82;2.65;;;;;;;11.28;100.00;99452.53;5036978;28;20391;-63
2022/03/11 11:15:10;;;;;;;3.60;3.15;;;;;;;11.40;100.00;99428.72;5026928;28;20036;-63
2022/03/11 11:17:41;;;;;;;5.28;3.00;;;;;;;11.51;100.00;99417.34;5040108;28;20037;-62
2022/03/11 11:20:20;;;;;;;3.10;2.67;;;;;;;11.55;100.00;99422.00;5035063;28;20041;-61
2022/03/11 11:22:48;;;;;;;3.33;2.10;;;;;;;11.66;100.00;99407.16;5029645;28;20075;-64
2022/03/11 11:25:17;;;;;;;6.55;2.95;;;;;;;11.79;100.00;99398.22;5042546;28;20040;-65